Time;durP1;ratioP1;P1;durP2;ratioP2;P2;SDS_P1;SDS_P2;PMS_P1;PMS_P2;Temp;Humidity;BMP_temperature;BMP_pressure;BME280_temperature;BME280_humidity;BME280_pressure;Samples;Min_cycle;Max_cycle;Signal;HPM_P1;HPM_P2
2022/08/18 00:01:53;;;;;;;7.13;6.53;;;20.70;99.90;;;;;;5006289;28;20280;-59
2022/08/18 00:04:18;;;;;;;7.68;6.80;;;20.60;99.90;;;;;;5003570;28;20275;-59
2022/08/18 00:06:44;;;;;;;6.60;5.97;;;20.60;99.90;;;;;;5010658;28;20723;-58
2022/08/18 00:09:11;;;;;;;7.17;6.47;;;20.60;99.90;;;;;;5008338;28;20199;-60
2022/08/18 00:11:42;;;;;;;6.40;5.90;;;20.60;99.90;;;;;;5009532;28;20175;-59
2022/08/18 00:14:18;;;;;;;7.20;6.60;;;20.50;99.90;;;;;;5011572;28;20240;-59
2022/08/18 00:16:44;;;;;;;6.68;6.18;;;20.50;99.90;;;;;;5009454;28;20186;-60
2022/08/18 00:19:09;;;;;;;5.90;5.40;;;20.50;99.90;;;;;;5010661;28;20700;-60
2022/08/18 00:21:35;;;;;;;7.10;6.60;;;20.40;99.90;;;;;;5011297;28;20198;-60
2022/08/18 00:24:01;;;;;;;6.70;6.10;;;20.40;99.90;;;;;;5009712;28;20199;-61
2022/08/18 00:26:27;;;;;;;7.00;6.47;;;20.50;99.90;;;;;;5011412;28;20648;-61
2022/08/18 00:28:53;;;;;;;6.40;5.90;;;20.50;99.90;;;;;;5012033;28;20210;-61
2022/08/18 00:31:18;;;;;;;6.43;6.03;;;20.50;99.90;;;;;;5008087;28;20445;-60
2022/08/18 00:33:44;;;;;;;6.80;5.90;;;20.60;99.90;;;;;;5010578;28;20445;-60
2022/08/18 00:36:10;;;;;;;6.53;6.03;;;20.60;99.90;;;;;;5007412;28;20187;-60
2022/08/18 00:38:37;;;;;;;6.70;6.20;;;20.40;99.90;;;;;;5008267;28;20206;-60
2022/08/18 00:41:04;;;;;;;6.20;5.70;;;20.60;99.90;;;;;;5010944;28;20183;-60
2022/08/18 00:43:38;;;;;;;6.65;6.15;;;20.60;99.90;;;;;;5011576;28;20179;-59
2022/08/18 00:46:07;;;;;;;6.40;5.80;;;20.60;99.90;;;;;;5010344;28;20580;-59
2022/08/18 00:48:33;;;;;;;5.97;5.47;;;20.60;99.90;;;;;;5010783;28;20285;-60
2022/08/18 00:51:04;;;;;;;5.93;5.53;;;20.60;99.90;;;;;;5005652;28;20250;-59
2022/08/18 00:53:44;;;;;;;5.57;5.18;;;20.70;99.90;;;;;;5010885;28;20549;-59
2022/08/18 00:56:15;;;;;;;6.28;5.78;;;20.70;99.90;;;;;;5002464;28;20309;-59
2022/08/18 00:58:46;;;;;;;6.50;5.90;;;20.70;99.90;;;;;;5008927;28;20297;-61
2022/08/18 01:01:13;;;;;;;6.38;5.88;;;20.70;99.90;;;;;;5007931;28;20190;-60
2022/08/18 01:03:41;;;;;;;6.18;5.68;;;20.70;99.90;;;;;;5008339;28;20183;-59
2022/08/18 01:06:33;;;;;;;6.18;5.57;;;20.70;99.90;;;;;;5008232;28;20183;-58
2022/08/18 01:09:00;;;;;;;6.07;5.68;;;20.70;99.90;;;;;;5006131;28;20195;-61
2022/08/18 01:11:26;;;;;;;6.80;6.30;;;20.70;99.90;;;;;;5009118;28;20187;-61
2022/08/18 01:13:52;;;;;;;6.20;5.70;;;20.60;99.90;;;;;;5010528;28;20182;-60
2022/08/18 01:21:58;;;;;;;6.47;5.97;;;20.80;99.90;;;;;;5007198;28;20614;-58
2022/08/18 01:27:17;;;;;;;5.88;5.47;;;20.70;99.90;;;;;;5012101;28;20186;-60
2022/08/18 01:29:47;;;;;;;6.25;5.75;;;20.70;99.90;;;;;;5010619;28;20675;-58
2022/08/18 01:32:19;;;;;;;6.70;6.20;;;20.60;99.90;;;;;;5007330;28;20274;-60
2022/08/18 01:34:47;;;;;;;8.10;6.45;;;20.60;99.90;;;;;;5007807;28;20186;-60
2022/08/18 01:37:16;;;;;;;6.15;5.65;;;20.50;99.90;;;;;;5005631;28;20214;-59
2022/08/18 01:39:43;;;;;;;6.55;6.05;;;20.50;99.90;;;;;;5006892;28;20307;-60
2022/08/18 01:42:09;;;;;;;5.85;5.35;;;20.60;99.90;;;;;;5006264;28;20649;-60
2022/08/18 01:44:36;;;;;;;6.68;6.07;;;20.60;99.90;;;;;;5009604;28;20313;-59
2022/08/18 01:47:02;;;;;;;6.40;6.00;;;20.50;99.90;;;;;;5009566;28;20576;-59
2022/08/18 01:49:27;;;;;;;6.20;5.70;;;20.60;99.90;;;;;;5010749;28;20203;-60
2022/08/18 01:51:54;;;;;;;6.23;5.73;;;20.50;99.90;;;;;;5007972;28;20663;-59
2022/08/18 01:54:20;;;;;;;6.38;5.78;;;20.50;99.90;;;;;;5007623;28;20183;-59
2022/08/18 01:56:48;;;;;;;6.40;5.80;;;20.50;99.90;;;;;;5008127;28;20183;-59
2022/08/18 01:59:14;;;;;;;6.78;6.28;;;20.50;99.90;;;;;;5004973;28;21115;-59
2022/08/18 02:01:43;;;;;;;6.07;5.68;;;20.40;99.90;;;;;;5002104;28;20207;-60
2022/08/18 02:04:11;;;;;;;6.03;5.53;;;20.40;99.90;;;;;;5006815;28;20210;-59
2022/08/18 02:06:37;;;;;;;6.63;6.13;;;20.40;99.90;;;;;;5002952;28;20182;-60
2022/08/18 02:09:03;;;;;;;5.85;5.38;;;20.30;99.90;;;;;;4999251;28;20309;-60
2022/08/18 02:11:29;;;;;;;7.30;6.63;;;20.30;99.90;;;;;;5005878;28;20189;-60
2022/08/18 02:13:54;;;;;;;6.60;6.10;;;20.30;99.90;;;;;;5008663;28;20195;-60
2022/08/18 02:16:20;;;;;;;6.87;6.23;;;20.30;99.90;;;;;;5001898;28;20187;-60
2022/08/18 02:18:46;;;;;;;6.90;6.40;;;20.20;99.90;;;;;;5009679;28;20214;-60
2022/08/18 02:21:15;;;;;;;6.35;5.85;;;20.30;99.90;;;;;;5000245;28;20191;-59
2022/08/18 02:23:41;;;;;;;6.22;5.75;;;20.20;99.90;;;;;;5009351;28;20640;-59
2022/08/18 02:26:09;;;;;;;6.68;6.18;;;20.20;99.90;;;;;;5009508;28;20640;-59
2022/08/18 02:28:36;;;;;;;6.70;6.22;;;20.30;99.90;;;;;;5010808;28;20199;-59
2022/08/18 02:31:16;;;;;;;6.93;6.43;;;20.20;99.90;;;;;;5018957;28;20182;-59
2022/08/18 02:33:43;;;;;;;6.80;6.30;;;20.30;99.90;;;;;;5009944;28;20191;-59
2022/08/18 02:36:09;;;;;;;6.55;6.05;;;20.30;99.90;;;;;;5009809;28;20174;-59
2022/08/18 02:38:35;;;;;;;5.88;5.43;;;20.30;99.90;;;;;;5007879;28;20221;-59
2022/08/18 02:41:05;;;;;;;6.37;5.87;;;20.30;99.90;;;;;;5008650;28;20700;-59
2022/08/18 02:43:31;;;;;;;6.22;5.72;;;20.30;99.90;;;;;;5008111;28;20442;-59
2022/08/18 02:45:57;;;;;;;6.95;6.35;;;20.30;99.90;;;;;;5006454;28;20184;-59
2022/08/18 02:48:35;;;;;;;6.17;5.67;;;20.40;99.90;;;;;;5007274;28;20221;-60
2022/08/18 02:51:11;;;;;;;5.93;5.53;;;20.40;99.90;;;;;;5004827;28;20219;-60
2022/08/18 02:53:41;;;;;;;6.55;6.05;;;20.30;99.90;;;;;;5009266;28;20186;-59
2022/08/18 02:56:23;;;;;;;6.63;6.10;;;20.30;99.90;;;;;;5009295;28;20179;-59
2022/08/18 02:58:56;;;;;;;6.18;5.68;;;20.30;99.90;;;;;;5008621;28;20749;-59
2022/08/18 03:01:27;;;;;;;6.00;5.53;;;20.20;99.90;;;;;;5007195;28;20591;-59
2022/08/18 03:03:54;;;;;;;6.72;6.22;;;20.20;99.90;;;;;;5010641;28;20207;-59
2022/08/18 03:06:21;;;;;;;6.63;6.03;;;20.10;99.90;;;;;;5012001;28;20450;-59
2022/08/18 03:08:49;;;;;;;6.63;6.13;;;20.10;99.90;;;;;;5007114;28;20199;-59
2022/08/18 03:11:20;;;;;;;6.90;6.40;;;20.10;99.90;;;;;;5012265;28;20182;-59
2022/08/18 03:13:46;;;;;;;6.72;6.22;;;20.10;99.90;;;;;;5012868;28;20193;-59
2022/08/18 03:16:12;;;;;;;7.03;6.50;;;20.20;99.90;;;;;;5012148;28;20266;-59
2022/08/18 03:18:40;;;;;;;6.35;5.93;;;20.20;99.90;;;;;;5014753;28;20458;-59
2022/08/18 03:21:11;;;;;;;7.10;6.28;;;20.20;99.90;;;;;;5011182;28;20190;-59
2022/08/18 03:23:40;;;;;;;6.80;6.30;;;20.10;99.90;;;;;;5008816;28;20186;-61
2022/08/18 03:26:11;;;;;;;6.65;6.05;;;20.10;99.90;;;;;;5012920;28;20179;-60
2022/08/18 03:28:41;;;;;;;6.53;6.03;;;20.10;99.90;;;;;;5005300;28;20574;-60
2022/08/18 03:31:08;;;;;;;7.10;6.50;;;20.10;99.90;;;;;;5011205;28;20679;-60
2022/08/18 03:33:34;;;;;;;6.10;5.60;;;20.20;99.90;;;;;;5009763;28;20195;-60
2022/08/18 03:36:05;;;;;;;6.43;5.93;;;20.00;99.90;;;;;;5014625;28;20187;-60
2022/08/18 03:38:31;;;;;;;7.10;6.60;;;20.10;99.90;;;;;;5005290;28;20211;-60
2022/08/18 03:40:56;;;;;;;6.87;6.17;;;20.10;99.90;;;;;;5011190;28;20241;-60
2022/08/18 03:43:23;;;;;;;6.23;5.70;;;20.10;99.90;;;;;;5012218;28;20201;-60
2022/08/18 03:45:49;;;;;;;7.07;6.47;;;20.00;99.90;;;;;;5012640;28;20298;-58
2022/08/18 03:48:15;;;;;;;6.63;6.13;;;20.00;99.90;;;;;;5008149;28;20219;-61
2022/08/18 03:50:41;;;;;;;6.63;6.13;;;20.00;99.90;;;;;;5011656;28;20201;-59
2022/08/18 03:53:07;;;;;;;6.70;6.10;;;20.00;99.90;;;;;;5012089;28;20860;-59
2022/08/18 03:55:32;;;;;;;6.40;5.90;;;20.00;99.90;;;;;;5008506;28;20441;-61
2022/08/18 03:58:01;;;;;;;6.73;6.23;;;20.00;99.90;;;;;;5010516;28;20214;-59
2022/08/18 04:00:29;;;;;;;6.50;6.00;;;20.00;99.90;;;;;;5010251;28;20612;-58
2022/08/18 04:02:56;;;;;;;6.65;6.07;;;20.10;99.90;;;;;;5012018;28;20202;-60
2022/08/18 04:05:21;;;;;;;6.75;6.25;;;20.20;99.90;;;;;;5012233;28;20234;-60
2022/08/18 04:07:47;;;;;;;8.67;6.40;;;20.20;99.90;;;;;;5009080;28;20187;-60
2022/08/18 04:10:13;;;;;;;6.57;5.97;;;20.20;99.90;;;;;;5012525;28;20191;-60
2022/08/18 04:12:40;;;;;;;6.70;6.10;;;20.00;99.90;;;;;;5009372;28;20270;-60
2022/08/18 04:15:06;;;;;;;6.85;6.35;;;20.00;99.90;;;;;;5009340;28;20855;-60
2022/08/18 04:17:32;;;;;;;6.47;6.00;;;20.00;99.90;;;;;;5010085;28;20179;-61
2022/08/18 04:19:57;;;;;;;6.53;6.03;;;20.10;99.90;;;;;;5010453;28;20212;-59
2022/08/18 04:22:24;;;;;;;7.07;6.50;;;20.00;99.90;;;;;;5010205;28;20218;-59
2022/08/18 04:24:50;;;;;;;6.80;6.25;;;20.00;99.90;;;;;;5011966;28;20206;-60
2022/08/18 04:27:16;;;;;;;7.93;7.25;;;20.00;99.90;;;;;;5012861;28;20187;-61
2022/08/18 04:29:42;;;;;;;7.50;6.75;;;20.00;99.90;;;;;;5010176;28;20199;-61
2022/08/18 04:32:07;;;;;;;7.23;6.63;;;20.00;99.90;;;;;;5010655;28;20552;-61
2022/08/18 04:34:33;;;;;;;7.27;6.67;;;20.10;99.90;;;;;;5011074;28;20540;-61
2022/08/18 04:37:01;;;;;;;6.75;5.97;;;20.10;99.90;;;;;;5009321;28;20202;-60
2022/08/18 04:39:26;;;;;;;6.85;6.15;;;20.00;99.90;;;;;;5007297;28;20228;-51
2022/08/18 04:41:53;;;;;;;7.53;6.53;;;20.00;99.90;;;;;;5011275;28;20588;-51
2022/08/18 04:44:20;;;;;;;6.90;6.40;;;19.90;99.90;;;;;;5010903;28;20293;-51
2022/08/18 04:46:50;;;;;;;7.90;7.10;;;19.90;99.90;;;;;;5009624;28;20183;-51
2022/08/18 04:49:18;;;;;;;7.30;6.63;;;19.90;99.90;;;;;;5009069;28;20227;-51
2022/08/18 04:53:43;;;;;;;6.90;6.40;;;20.00;99.90;;;;;;5011083;28;20606;-51
2022/08/18 04:54:37;;;;;;;7.05;6.40;;;20.00;99.90;;;;;;5007078;28;20610;-50
2022/08/18 04:57:18;;;;;;;7.75;6.80;;;20.00;99.90;;;;;;5007315;28;20179;-51
2022/08/18 04:59:45;;;;;;;6.50;6.00;;;20.00;99.90;;;;;;5010152;28;20202;-51
2022/08/18 05:02:13;;;;;;;7.38;6.68;;;20.00;99.90;;;;;;5002312;28;20203;-50
2022/08/18 05:04:41;;;;;;;7.20;6.60;;;20.10;99.90;;;;;;5003169;28;20223;-50
2022/08/18 05:07:14;;;;;;;7.35;6.82;;;20.10;99.90;;;;;;5005511;28;20187;-51
2022/08/18 05:09:43;;;;;;;7.13;6.45;;;20.10;99.90;;;;;;5007277;28;20275;-51
2022/08/18 05:12:12;;;;;;;7.43;6.82;;;20.10;99.90;;;;;;5002446;28;21421;-51
2022/08/18 05:14:39;;;;;;;7.97;7.30;;;20.20;99.90;;;;;;5006159;28;20194;-50
2022/08/18 05:17:06;;;;;;;7.00;6.40;;;20.30;99.90;;;;;;5008766;28;20591;-51
2022/08/18 05:19:33;;;;;;;7.70;5.95;;;20.20;99.90;;;;;;5010343;28;20199;-49
2022/08/18 05:21:58;;;;;;;7.28;6.75;;;20.40;99.90;;;;;;5006941;28;20306;-51
2022/08/18 05:24:26;;;;;;;8.37;7.57;;;20.40;99.90;;;;;;5007221;28;20704;-50
2022/08/18 05:26:54;;;;;;;7.05;6.45;;;20.50;99.90;;;;;;5009453;28;20542;-50
2022/08/18 05:29:20;;;;;;;8.25;7.63;;;20.60;99.90;;;;;;5009062;28;20198;-51
2022/08/18 05:31:51;;;;;;;7.03;6.53;;;20.70;99.90;;;;;;5006264;28;20190;-50
2022/08/18 05:34:20;;;;;;;7.18;6.60;;;20.80;99.90;;;;;;5008249;28;20199;-50
2022/08/18 05:36:49;;;;;;;9.75;7.65;;;20.80;99.90;;;;;;5008588;28;20228;-51
2022/08/18 05:39:25;;;;;;;7.00;6.40;;;20.90;99.90;;;;;;5004361;28;20209;-50
2022/08/18 05:41:57;;;;;;;7.40;6.40;;;21.00;99.90;;;;;;5009453;28;20214;-50
2022/08/18 05:44:28;;;;;;;6.27;5.77;;;21.10;99.90;;;;;;5009666;28;20672;-50
2022/08/18 05:46:58;;;;;;;4.67;4.27;;;21.20;99.90;;;;;;5004836;28;20452;-52
2022/08/18 05:49:25;;;;;;;6.60;6.03;;;21.50;99.90;;;;;;5003859;28;20465;-52
2022/08/18 05:52:03;;;;;;;5.13;4.67;;;21.80;99.90;;;;;;5008934;28;20219;-52
2022/08/18 05:57:29;;;;;;;6.73;6.23;;;22.10;99.90;;;;;;4999802;28;20448;-70
2022/08/18 05:59:56;;;;;;;7.10;6.40;;;22.30;99.90;;;;;;5006093;28;20478;-68
2022/08/18 06:02:50;;;;;;;7.80;7.20;;;22.10;99.90;;;;;;5007571;28;20457;-67
2022/08/18 06:05:39;;;;;;;7.10;6.40;;;22.20;99.90;;;;;;5013668;28;20516;-67
2022/08/18 06:08:09;;;;;;;7.67;6.63;;;22.30;99.90;;;;;;4996993;28;20481;-69
2022/08/18 06:10:36;;;;;;;7.07;6.57;;;22.30;99.90;;;;;;5007504;28;20958;-63
2022/08/18 06:13:06;;;;;;;6.73;6.23;;;22.30;99.90;;;;;;5010320;28;20450;-63
2022/08/18 06:15:44;;;;;;;7.53;6.93;;;22.30;99.90;;;;;;5000896;28;20453;-63
2022/08/18 06:18:25;;;;;;;7.07;6.47;;;22.40;99.90;;;;;;5001017;28;20468;-71
2022/08/18 06:21:19;;;;;;;8.40;7.70;;;22.60;99.90;;;;;;5008115;28;20808;-66
2022/08/18 06:23:56;;;;;;;7.83;7.20;;;22.70;99.90;;;;;;5002841;28;20503;-63
2022/08/18 06:26:46;;;;;;;6.90;6.40;;;22.60;99.90;;;;;;5002866;28;20880;-64
2022/08/18 06:29:38;;;;;;;7.10;6.47;;;22.80;99.90;;;;;;5009081;28;20465;-63
2022/08/18 06:32:27;;;;;;;6.60;6.00;;;22.90;99.90;;;;;;5006717;28;20441;-65
2022/08/18 06:35:00;;;;;;;8.03;7.37;;;23.00;99.90;;;;;;5007680;28;20438;-67
2022/08/18 06:38:37;;;;;;;7.30;6.70;;;23.10;99.90;;;;;;5002700;28;21001;-67
2022/08/18 06:40:24;;;;;;;7.97;7.37;;;23.00;99.90;;;;;;5010152;28;20537;-64
2022/08/18 06:42:50;;;;;;;7.20;6.60;;;22.60;99.90;;;;;;5016186;28;20877;-65
2022/08/18 06:45:18;;;;;;;7.47;6.87;;;22.70;99.90;;;;;;5012163;28;20572;-65
2022/08/18 06:48:02;;;;;;;8.00;7.30;;;22.90;99.90;;;;;;5011907;28;20265;-65
2022/08/18 06:51:01;;;;;;;7.40;6.80;;;23.10;99.70;;;;;;5012566;28;20448;-65
2022/08/18 06:53:48;;;;;;;7.93;7.33;;;23.10;99.10;;;;;;5006265;28;20492;-64
2022/08/18 06:56:33;;;;;;;7.27;6.53;;;22.70;99.90;;;;;;5012541;28;20473;-68
2022/08/18 06:59:18;;;;;;;7.47;6.80;;;23.00;99.90;;;;;;5012052;28;20469;-68
2022/08/18 07:01:47;;;;;;;8.03;6.63;;;23.40;99.10;;;;;;5002217;28;20453;-67
2022/08/18 07:05:01;;;;;;;7.13;6.53;;;23.60;98.30;;;;;;5009253;28;20475;-70
2022/08/18 07:07:30;;;;;;;8.17;7.37;;;23.00;98.40;;;;;;4933822;29;20977;-67
2022/08/18 07:09:55;;;;;;;7.20;6.63;;;23.10;98.80;;;;;;4996853;28;20466;-62
2022/08/18 07:12:25;;;;;;;7.93;7.30;;;23.30;98.50;;;;;;5009083;28;20438;-63
2022/08/18 07:14:57;;;;;;;7.63;7.03;;;23.30;98.20;;;;;;5012491;28;20190;-64
2022/08/18 07:17:28;;;;;;;8.40;7.67;;;23.40;98.40;;;;;;5021024;28;20945;-65
2022/08/18 07:20:29;;;;;;;9.10;6.27;;;23.40;98.30;;;;;;5004426;28;20461;-64
2022/08/18 07:23:01;;;;;;;7.13;6.53;;;23.30;98.40;;;;;;4964340;28;20504;-62
2022/08/18 07:25:39;;;;;;;7.83;7.20;;;23.10;98.30;;;;;;5009965;28;20473;-62
2022/08/18 07:28:06;;;;;;;7.13;6.53;;;23.10;98.60;;;;;;5024390;28;20461;-61
2022/08/18 07:30:36;;;;;;;7.10;6.50;;;22.90;98.40;;;;;;4999898;28;21283;-62
2022/08/18 07:33:14;;;;;;;7.17;6.67;;;23.30;97.80;;;;;;5006252;28;20480;-62
2022/08/18 07:35:57;;;;;;;9.83;8.93;;;23.30;98.10;;;;;;5009279;28;20618;-62
2022/08/18 07:38:32;;;;;;;7.37;6.67;;;23.20;98.10;;;;;;5001411;28;20461;-60
2022/08/18 07:41:04;;;;;;;7.10;6.50;;;23.30;98.20;;;;;;5010746;28;20507;-60
2022/08/18 07:43:45;;;;;;;7.63;6.93;;;23.30;98.20;;;;;;5000026;28;20527;-60
2022/08/18 07:46:59;;;;;;;6.93;6.40;;;23.20;98.30;;;;;;5009756;28;20449;-60
2022/08/18 07:49:29;;;;;;;6.60;6.10;;;23.20;98.50;;;;;;5003817;28;20544;-61
2022/08/18 07:52:15;;;;;;;6.57;5.97;;;23.20;98.60;;;;;;5006989;28;20800;-61
2022/08/18 07:54:53;;;;;;;9.43;8.33;;;23.20;98.50;;;;;;5007247;28;20966;-61
2022/08/18 07:57:25;;;;;;;7.80;7.20;;;23.10;98.50;;;;;;5008322;28;20433;-61
2022/08/18 08:00:04;;;;;;;7.73;6.97;;;23.00;98.80;;;;;;5009205;28;20469;-61
2022/08/18 08:02:47;;;;;;;7.10;6.53;;;22.90;98.90;;;;;;5004606;28;20486;-64
2022/08/18 08:05:13;;;;;;;6.57;6.07;;;23.00;98.90;;;;;;5007081;28;20468;-61
2022/08/18 08:07:54;;;;;;;6.97;6.40;;;22.90;99.30;;;;;;5006324;28;20437;-61
2022/08/18 08:11:01;;;;;;;7.17;6.67;;;23.00;99.60;;;;;;5007633;28;20907;-61
2022/08/18 08:13:54;;;;;;;6.93;6.43;;;23.10;99.30;;;;;;5001695;28;20503;-61
2022/08/18 08:16:46;;;;;;;7.47;6.77;;;22.70;98.90;;;;;;5001866;28;20430;-61
2022/08/18 08:19:39;;;;;;;7.00;6.37;;;23.20;99.10;;;;;;5004592;28;20474;-67
2022/08/18 08:22:19;;;;;;;6.93;6.23;;;23.20;98.90;;;;;;5025355;28;20457;-65
2022/08/18 08:24:53;;;;;;;6.80;6.23;;;23.20;99.20;;;;;;5009235;28;20983;-69
2022/08/18 08:27:47;;;;;;;7.23;6.63;;;23.30;99.00;;;;;;5009749;28;20445;-68
2022/08/18 08:30:19;;;;;;;7.30;6.73;;;23.20;98.90;;;;;;5009581;28;20448;-69
2022/08/18 08:33:00;;;;;;;7.67;6.97;;;23.20;98.90;;;;;;5005797;28;20439;-66
2022/08/18 08:36:02;;;;;;;6.47;5.87;;;23.30;98.80;;;;;;5025087;28;20499;-65
2022/08/18 08:38:44;;;;;;;8.80;7.17;;;23.60;98.40;;;;;;5020936;28;20468;-68
2022/08/18 08:41:26;;;;;;;6.63;6.13;;;23.70;98.10;;;;;;5004195;28;20540;-68
2022/08/18 08:44:14;;;;;;;7.10;6.50;;;24.10;97.70;;;;;;5010607;28;20521;-64
2022/08/18 08:46:48;;;;;;;6.80;6.30;;;24.00;97.40;;;;;;5011647;28;20560;-65
2022/08/18 08:49:34;;;;;;;6.07;5.57;;;24.20;97.10;;;;;;5003277;28;20462;-65
2022/08/18 08:52:15;;;;;;;7.23;6.73;;;24.70;96.90;;;;;;5002643;28;20444;-65
2022/08/18 08:54:51;;;;;;;7.80;7.20;;;26.00;94.60;;;;;;5007190;28;20880;-63
2022/08/18 08:57:17;;;;;;;6.70;6.10;;;26.40;92.90;;;;;;5005391;28;20436;-63
2022/08/18 08:59:46;;;;;;;8.07;7.37;;;26.40;92.50;;;;;;5011051;28;20461;-62
2022/08/18 09:02:18;;;;;;;8.37;7.77;;;26.10;92.80;;;;;;5008667;28;20449;-61
2022/08/18 09:04:51;;;;;;;8.80;8.00;;;26.00;93.40;;;;;;5008069;28;20962;-66
2022/08/18 09:08:04;;;;;;;7.23;6.73;;;26.10;92.90;;;;;;5007269;28;20524;-65
2022/08/18 09:11:07;;;;;;;8.40;7.80;;;26.00;93.30;;;;;;4939541;28;20470;-66
2022/08/18 09:14:10;;;;;;;8.90;8.20;;;25.50;94.00;;;;;;5013828;28;20437;-65
2022/08/18 09:17:13;;;;;;;7.40;6.80;;;25.80;93.80;;;;;;5005760;28;20539;-65
2022/08/18 09:20:06;;;;;;;8.13;7.40;;;26.90;92.50;;;;;;5010757;28;20465;-65
2022/08/18 09:22:47;;;;;;;9.40;8.40;;;29.00;88.00;;;;;;5002781;28;20449;-65
2022/08/18 09:25:44;;;;;;;8.10;7.50;;;30.50;79.50;;;;;;5009089;28;21085;-66
2022/08/18 09:28:38;;;;;;;7.27;6.70;;;29.20;79.50;;;;;;5008255;28;20462;-66
2022/08/18 09:31:06;;;;;;;7.30;6.80;;;29.40;81.70;;;;;;5007895;28;20438;-66
2022/08/18 09:33:33;;;;;;;7.80;7.30;;;29.70;80.40;;;;;;5007917;28;20783;-67
2022/08/18 09:36:34;;;;;;;7.27;6.67;;;29.70;80.30;;;;;;5008731;28;20435;-69
2022/08/18 09:42:16;;;;;;;9.10;7.20;;;29.20;81.20;;;;;;5010418;28;20481;-65
2022/08/18 09:44:47;;;;;;;8.17;7.37;;;28.60;84.00;;;;;;5009130;28;21000;-65
2022/08/18 09:47:19;;;;;;;9.90;8.90;;;28.70;84.20;;;;;;5009187;28;20525;-63
2022/08/18 09:49:48;;;;;;;9.23;8.53;;;28.60;84.30;;;;;;5008518;28;20458;-64
2022/08/18 09:52:25;;;;;;;8.80;8.10;;;28.40;85.10;;;;;;5006748;28;20444;-67
2022/08/18 09:55:01;;;;;;;8.23;7.53;;;28.40;85.60;;;;;;5018917;28;20439;-65
2022/08/18 09:57:33;;;;;;;8.57;7.77;;;28.40;85.40;;;;;;5004792;28;20441;-65
2022/08/18 10:00:07;;;;;;;8.93;8.23;;;28.40;86.40;;;;;;5009734;28;20445;-65
2022/08/18 10:02:36;;;;;;;13.23;12.10;;;28.10;86.10;;;;;;5016486;28;20884;-64
2022/08/18 10:05:25;;;;;;;8.40;7.70;;;28.00;87.10;;;;;;5006687;28;20467;-65
2022/08/18 10:08:05;;;;;;;8.30;7.70;;;28.40;86.30;;;;;;5003491;28;21259;-66
2022/08/18 10:10:36;;;;;;;9.43;8.43;;;28.70;85.10;;;;;;5007311;28;20522;-65
2022/08/18 10:13:25;;;;;;;20.60;18.80;;;28.40;85.30;;;;;;5006279;28;21087;-64
2022/08/18 10:16:21;;;;;;;10.10;9.30;;;28.30;86.10;;;;;;5007184;28;20449;-65
2022/08/18 10:18:59;;;;;;;12.63;11.63;;;28.40;86.20;;;;;;5006509;28;20522;-65
2022/08/18 10:21:49;;;;;;;9.80;9.00;;;27.90;87.00;;;;;;5007317;28;20528;-64
2022/08/18 10:24:18;;;;;;;10.60;9.80;;;27.50;89.40;;;;;;5005126;28;20477;-65
2022/08/18 10:26:49;;;;;;;9.17;8.40;;;27.60;89.70;;;;;;5007127;28;20450;-67
2022/08/18 10:29:27;;;;;;;9.30;8.60;;;27.60;89.60;;;;;;5004907;28;20521;-66
2022/08/18 10:31:56;;;;;;;9.47;8.57;;;27.40;90.00;;;;;;5009410;28;20453;-65
2022/08/18 10:34:24;;;;;;;8.63;7.93;;;27.30;90.30;;;;;;5007894;28;21038;-65
2022/08/18 10:37:10;;;;;;;9.53;8.63;;;27.40;90.20;;;;;;5006613;28;20461;-65
2022/08/18 10:39:39;;;;;;;9.17;8.57;;;27.30;90.50;;;;;;5003770;28;20466;-65
2022/08/18 10:42:43;;;;;;;9.73;8.93;;;26.90;90.80;;;;;;5003066;28;20442;-65
2022/08/18 10:45:24;;;;;;;9.53;8.73;;;27.10;90.90;;;;;;5003059;28;20832;-66
2022/08/18 10:48:09;;;;;;;11.17;10.10;;;27.20;90.80;;;;;;5003844;28;20890;-66
2022/08/18 10:50:50;;;;;;;9.83;9.03;;;27.50;90.30;;;;;;5004915;28;20472;-68
2022/08/18 10:53:29;;;;;;;9.23;8.43;;;27.30;90.30;;;;;;5010092;28;20453;-73
2022/08/18 10:56:07;;;;;;;9.30;8.60;;;27.40;90.20;;;;;;5007324;28;20442;-70
2022/08/18 10:58:48;;;;;;;7.57;6.97;;;27.50;89.70;;;;;;5005762;28;20471;-68
2022/08/18 11:01:41;;;;;;;9.90;9.20;;;27.70;88.80;;;;;;5006170;28;20446;-65
2022/08/18 11:04:23;;;;;;;10.80;10.00;;;27.70;89.40;;;;;;5001242;28;20477;-66
2022/08/18 11:06:55;;;;;;;9.17;8.47;;;27.90;88.40;;;;;;5004149;28;20442;-69
2022/08/18 11:09:26;;;;;;;10.37;9.57;;;27.50;89.20;;;;;;5018150;28;20577;-63
2022/08/18 11:11:54;;;;;;;9.37;8.67;;;27.60;87.90;;;;;;5006961;28;20450;-68
2022/08/18 11:14:41;;;;;;;9.73;9.03;;;27.60;86.70;;;;;;4996808;28;20461;-68
2022/08/18 11:17:16;;;;;;;9.67;8.87;;;27.10;88.50;;;;;;5014238;28;20473;-68
2022/08/18 11:19:43;;;;;;;10.07;9.07;;;27.20;89.60;;;;;;5009327;28;20471;-65
2022/08/18 11:22:30;;;;;;;9.27;8.47;;;27.40;88.60;;;;;;5007667;28;20446;-67
2022/08/18 11:25:00;;;;;;;10.27;9.30;;;27.70;87.30;;;;;;5007429;28;20579;-65
2022/08/18 11:27:34;;;;;;;10.30;9.43;;;28.00;86.70;;;;;;5012406;28;20451;-69
2022/08/18 11:30:01;;;;;;;9.80;9.10;;;28.00;85.60;;;;;;5009382;28;21015;-71
2022/08/18 11:32:29;;;;;;;11.40;10.40;;;27.70;85.50;;;;;;5004096;28;20442;-72
2022/08/18 11:34:58;;;;;;;10.57;9.67;;;27.30;88.10;;;;;;5009911;28;20465;-71
2022/08/18 11:37:53;;;;;;;11.40;10.37;;;27.30;88.10;;;;;;5009198;28;20502;-68
2022/08/18 11:40:27;;;;;;;10.00;9.23;;;27.40;87.80;;;;;;5008462;28;20454;-67
2022/08/18 11:43:16;;;;;;;10.30;9.47;;;27.60;87.10;;;;;;5017228;28;20449;-70
2022/08/18 11:45:54;;;;;;;12.30;11.23;;;27.30;87.60;;;;;;4993520;28;21007;-67
2022/08/18 11:48:31;;;;;;;11.30;10.27;;;27.20;87.70;;;;;;5016384;28;20485;-65
2022/08/18 11:51:00;;;;;;;10.43;9.63;;;27.40;87.60;;;;;;5012354;28;20524;-68
2022/08/18 11:53:32;;;;;;;10.60;9.70;;;27.60;87.20;;;;;;5010114;28;20517;-66
2022/08/18 11:56:18;;;;;;;18.93;17.53;;;27.80;86.20;;;;;;5010213;28;21038;-66
2022/08/18 11:59:00;;;;;;;11.93;10.87;;;27.70;86.40;;;;;;5009716;28;20554;-67
2022/08/18 12:01:44;;;;;;;11.97;10.90;;;27.70;85.60;;;;;;5006519;28;21186;-64
2022/08/18 12:04:13;;;;;;;10.53;9.73;;;27.90;86.10;;;;;;5010064;28;20473;-65
2022/08/18 12:07:05;;;;;;;11.50;10.40;;;27.80;86.00;;;;;;5005346;28;20917;-64
2022/08/18 12:09:36;;;;;;;10.40;9.70;;;27.40;87.40;;;;;;5008686;28;20479;-65
2022/08/18 12:12:23;;;;;;;10.63;9.83;;;27.40;86.10;;;;;;5004928;28;20524;-67
2022/08/18 12:15:22;;;;;;;11.10;10.30;;;27.40;85.70;;;;;;5010581;28;20442;-66
2022/08/18 12:17:48;;;;;;;11.83;10.73;;;27.30;86.80;;;;;;5001018;28;20450;-65
2022/08/18 12:20:15;;;;;;;10.57;9.67;;;27.30;86.50;;;;;;5009303;28;20974;-63
2022/08/18 12:22:43;;;;;;;8.80;8.10;;;27.60;86.10;;;;;;5001214;28;20548;-65
2022/08/18 12:25:12;;;;;;;8.53;7.83;;;27.60;85.00;;;;;;5008910;28;20465;-63
2022/08/18 12:27:40;;;;;;;9.17;8.40;;;27.40;85.70;;;;;;5009465;28;20451;-62
2022/08/18 12:30:07;;;;;;;10.43;9.50;;;27.50;84.60;;;;;;5010888;28;20491;-67
2022/08/18 12:32:37;;;;;;;10.50;9.70;;;27.50;83.60;;;;;;5007267;28;20880;-69
2022/08/18 12:35:05;;;;;;;10.27;9.37;;;27.50;83.60;;;;;;5004971;28;20447;-68
2022/08/18 12:37:31;;;;;;;10.67;9.63;;;27.30;84.00;;;;;;5005543;28;20442;-65
2022/08/18 12:39:58;;;;;;;10.80;9.90;;;27.40;85.00;;;;;;5008814;28;20496;-64
2022/08/18 12:42:24;;;;;;;11.63;10.63;;;27.50;84.30;;;;;;5010343;28;20187;-65
2022/08/18 12:44:51;;;;;;;10.00;9.30;;;27.50;85.40;;;;;;5006351;28;20479;-65
2022/08/18 12:47:20;;;;;;;10.57;9.87;;;27.40;84.90;;;;;;5007559;28;20810;-69
2022/08/18 12:49:47;;;;;;;9.80;9.10;;;27.50;83.60;;;;;;5009130;28;20462;-69
2022/08/18 12:52:13;;;;;;;9.63;8.93;;;27.50;82.60;;;;;;5000595;28;20454;-70
2022/08/18 12:54:42;;;;;;;10.77;9.87;;;27.40;81.80;;;;;;5009558;28;21009;-68
2022/08/18 12:57:18;;;;;;;8.80;8.00;;;27.30;82.40;;;;;;5008458;28;20886;-66
2022/08/18 12:59:43;;;;;;;9.77;8.87;;;27.40;82.80;;;;;;5004003;28;20469;-64
2022/08/18 13:02:10;;;;;;;9.73;9.03;;;27.50;81.60;;;;;;5003794;28;20937;-60
2022/08/18 13:04:36;;;;;;;10.20;9.40;;;27.50;82.10;;;;;;5009140;28;20683;-66
2022/08/18 13:07:03;;;;;;;10.00;9.03;;;27.20;82.20;;;;;;4999242;28;20529;-63
2022/08/18 13:09:30;;;;;;;11.10;10.10;;;27.20;83.50;;;;;;5008810;28;20211;-62
2022/08/18 13:11:56;;;;;;;9.80;9.00;;;27.20;83.70;;;;;;5008742;28;20942;-63
2022/08/18 13:14:22;;;;;;;10.40;9.50;;;27.20;84.20;;;;;;5008153;28;20500;-63
2022/08/18 13:16:48;;;;;;;10.90;9.90;;;27.20;83.20;;;;;;5005184;28;20242;-73
2022/08/18 13:19:13;;;;;;;10.53;9.70;;;27.10;83.00;;;;;;5007217;28;20203;-76
2022/08/18 13:21:40;;;;;;;10.90;9.30;;;27.90;83.20;;;;;;5024722;28;20198;-73
2022/08/18 13:24:07;;;;;;;10.00;9.00;;;27.30;82.20;;;;;;4997814;28;20181;-63
2022/08/18 13:26:44;;;;;;;10.30;9.17;;;27.50;82.10;;;;;;5003693;28;20439;-64
2022/08/18 13:29:10;;;;;;;13.53;12.30;;;27.40;82.40;;;;;;5003912;28;21012;-63
2022/08/18 13:31:36;;;;;;;9.50;8.60;;;27.70;82.20;;;;;;5010595;28;20453;-63
2022/08/18 13:34:03;;;;;;;9.50;8.73;;;27.90;81.70;;;;;;5001220;28;20183;-62